Latest Weather Observations for Camden

IDN60801

Issued at 8:02 pm EST Tuesday 26 May 2015 (issued every 30 minutes, with the page automatically refreshed every 10 minutes)

About weather observations | Map of weather stations | Latest weather observations for NSW | Other Formats
Station Details ID: 068192 Name: CAMDEN AIRPORT AWS Lat: -34.04 Lon: 150.69 Height: 73.9 m
Data from the previous 72 hours. | See also: Recent months at Camden
Date/Time
EST
Temp
°C
App
Temp
°C
Dew
Point
Rel
Hum
%
Delta-T
°C
Wind Press
QNH
hPa
Press
MSL
hPa
Rain
since 9 am
mm
Dir
 
Spd
km/h
Gust
km/h
Spd
kts
Gust
kts
26/08:00pm 9.7 9.3 8.3 91 0.7 CALM 0 0 0 0 1026.9 1026.9 0.0
26/07:30pm 10.0 9.5 7.9 87 1.0 CALM 0 0 0 0 1027.1 1027.1 0.0
26/07:00pm 10.6 10.1 8.0 84 1.3 CALM 0 0 0 0 1027.1 1027.1 0.0
26/06:30pm 11.4 11.0 8.3 81 1.5 CALM 0 0 0 0 1026.9 1026.9 0.0
26/06:00pm 11.1 10.8 8.5 84 1.3 CALM 0 0 0 0 1026.6 1026.6 0.0
26/05:30pm 12.8 11.5 7.7 71 2.5 NNW 4 6 2 3 1026.2 1026.2 0.0
26/05:00pm 12.7 11.0 7.4 70 2.6 N 6 7 3 4 1026.2 1026.2 0.0
26/04:30pm 14.2 12.3 7.5 64 3.3 NNW 7 9 4 5 1026.3 1026.3 0.0
26/04:00pm 15.8 13.8 7.0 56 4.3 NNW 7 9 4 5 1026.3 1026.3 0.0
26/03:30pm 16.7 14.4 5.9 49 5.3 N 7 9 4 5 1026.2 1026.2 0.0
26/03:00pm 17.0 14.6 7.1 52 4.9 NNW 9 13 5 7 1026.6 1026.6 0.0
26/02:30pm 17.3 16.2 6.8 50 5.2 NW 2 11 1 6 1026.7 1026.7 0.0
26/02:00pm 17.8 15.8 7.0 49 5.4 NW 7 11 4 6 1026.9 1026.9 0.0
26/01:30pm 17.0 15.2 7.1 52 4.9 WSW 6 7 3 4 1027.1 1027.1 0.0
26/01:00pm 17.1 15.4 7.5 53 4.8 WSW 6 9 3 5 1027.4 1027.4 0.0
26/12:30pm 16.7 14.7 7.1 53 4.8 WNW 7 9 4 5 1028.0 1028.0 0.0
26/12:00pm 16.5 14.6 6.9 53 4.7 WNW 6 11 3 6 1028.5 1028.5 0.0
26/11:30am 16.2 14.8 7.2 55 4.5 WNW 4 9 2 5 1029.0 1029.0 0.0
26/11:00am 15.1 12.6 6.4 56 4.2 W 9 17 5 9 1029.7 1029.7 0.0
26/10:30am 13.4 11.6 7.2 66 3.0 WNW 6 11 3 6 1029.9 1029.9 0.0
26/10:00am 12.0 11.5 7.9 76 2.0 CALM 0 0 0 0 1030.0 1030.0 0.0
26/09:30am 10.2 9.9 8.8 91 0.7 CALM 0 0 0 0 1030.3 1030.3 0.0
26/09:00am 7.6 7.0 7.5 99 0.0 CALM 0 0 0 0 1030.4 1030.4 0.0
26/08:30am 5.7 4.7 5.6 99 0.0 CALM 0 0 0 0 1030.3 1030.3 0.0
26/08:00am 4.5 3.3 4.4 99 0.0 CALM 0 0 0 0 1030.3 1030.3 0.0
26/07:30am 2.1 0.4 2.0 99 0.0 CALM 0 0 0 0 1029.9 1029.9 0.0
26/07:00am 1.9 0.2 1.8 99 0.0 CALM 0 0 0 0 1029.7 1029.7 0.0
26/06:46am 2.3 0.7 2.2 99 0.0 CALM 0 0 0 0 1029.5 1029.4 0.0
26/06:41am 1.8 0.1 1.7 99 0.0 CALM 0 0 0 0 1029.5 1029.4 0.0
26/06:30am 2.5 0.9 2.4 99 0.0 CALM 0 0 0 0 1029.3 1029.3 0.0
26/06:00am 2.1 0.4 2.0 99 0.0 CALM 0 0 0 0 1029.1 1029.1 0.0
26/05:34am 2.5 0.9 2.4 99 0.0 CALM 0 0 0 0 1029.1 1029.1 0.0
26/05:30am 2.3 0.7 2.2 99 0.0 CALM 0 0 0 0 1029.1 1029.1 0.0
26/05:24am 2.2 0.5 2.1 99 0.0 CALM 0 0 0 0 1029.1 1029.1 0.0
26/05:01am 2.3 0.7 2.2 99 0.0 CALM 0 0 0 0 1029.0 1029.0 0.0
26/05:00am 2.3 0.7 2.2 99 0.0 CALM 0 0 0 0 1029.0 1029.0 0.0
26/04:57am 2.4 0.8 2.3 99 0.0 CALM 0 0 0 0 1029.0 1029.0 0.0
26/04:30am 2.6 1.0 2.5 99 0.0 CALM 0 0 0 0 1028.9 1028.9 0.0
26/04:00am 2.3 -0.1 2.2 99 0.0 SSE 4 11 2 6 1028.9 1028.9 0.0
26/03:39am 2.7 1.1 2.6 99 0.0 CALM 0 0 0 0 1029.2 1029.2 0.0
26/03:30am 2.6 1.0 2.5 99 0.0 CALM 0 0 0 0 1029.1 1029.1 0.0
26/03:00am 3.0 1.5 2.9 99 0.0 CALM 0 0 0 0 1029.6 1029.5 0.0
26/02:59am 2.9 1.4 2.8 99 0.0 CALM 0 0 0 0 1029.6 1029.5 0.0
26/02:30am 3.2 1.7 3.1 99 0.0 CALM 0 0 0 0 1029.6 1029.5 0.0
26/02:20am 3.1 1.6 3.0 99 0.0 CALM 0 0 0 0 1029.7 1029.7 0.0
26/02:11am 3.1 1.6 3.0 99 0.0 CALM 0 0 0 0 1029.8 1029.8 0.0
26/02:00am 2.8 1.2 2.7 99 0.0 CALM 0 0 0 0 1029.8 1029.8 0.0
26/01:36am 3.0 1.5 2.9 99 0.0 CALM 0 0 0 0 1029.8 1029.8 0.0
26/01:30am 2.9 1.4 2.8 99 0.0 CALM 0 0 0 0 1029.7 1029.7 0.0
26/01:28am 2.9 1.4 2.8 99 0.0 CALM 0 0 0 0 1029.7 1029.7 0.0
26/01:17am 3.3 1.8 3.2 99 0.0 CALM 0 0 0 0 1029.7 1029.7 0.0
26/01:03am 3.8 2.4 3.7 99 0.0 CALM 0 0 0 0 1029.7 1029.7 0.0
26/01:00am 4.0 2.7 3.9 99 0.0 CALM 0 0 0 0 1029.7 1029.7 0.0
26/12:30am 3.6 2.2 3.5 99 0.0 CALM 0 0 0 0 1029.8 1029.8 0.0
26/12:00am 3.8 2.0 3.7 99 0.0 S 2 7 1 4 1029.6 1029.5 0.0
 
Date/Time
EST
Temp
°C
App
Temp
°C
Dew
Point
Rel
Hum
%
Delta-T
°C
Wind Press
QNH
hPa
Press
MSL
hPa
Rain
since 9 am
mm
Dir
 
Spd
km/h
Gust
km/h
Spd
kts
Gust
kts
25/11:58pm 3.9 2.2 3.8 99 0.0 S 2 7 1 4 1029.6 1029.5 0.0
25/11:51pm 3.9 2.5 3.8 99 0.0 CALM 0 0 0 0 1029.8 1029.8 0.0
25/11:30pm 3.6 2.2 3.5 99 0.0 CALM 0 0 0 0 1030.0 1030.0 0.0
25/11:00pm 5.0 2.7 4.9 99 0.0 S 6 7 3 4 1030.0 1030.0 0.0
25/10:30pm 5.1 2.8 5.0 99 0.0 S 6 9 3 5 1030.0 1030.0 0.0
25/10:16pm 4.9 2.4 4.8 99 0.0 S 7 9 4 5 1030.1 1030.1 0.0
25/10:10pm 5.3 2.5 5.2 99 0.0 S 9 11 5 6 1030.1 1030.1 0.0
25/10:00pm 5.5 4.1 5.4 99 0.0 SSE 2 9 1 5 1030.0 1030.0 0.0
25/09:30pm 5.4 4.3 5.0 97 0.2 CALM 0 0 0 0 1030.1 1030.1 0.0
25/09:00pm 7.0 6.2 6.7 98 0.1 CALM 0 0 0 0 1030.1 1030.1 0.0
25/08:54pm 6.8 6.0 6.4 97 0.2 CALM 0 0 0 0 1030.2 1030.2 0.0
25/08:53pm 6.8 6.0 6.4 97 0.2 CALM 0 0 0 0 1030.2 1030.2 0.0
25/08:48pm 7.0 6.2 6.4 96 0.3 CALM 0 0 0 0 1030.1 1030.1 0.0
25/08:47pm 7.0 6.2 6.4 96 0.3 CALM 0 0 0 0 1030.0 1030.0 0.0
25/08:45pm 6.6 5.7 6.0 96 0.3 CALM 0 0 0 0 1030.0 1030.0 0.0
25/08:44pm 6.8 5.9 6.2 96 0.3 CALM 0 0 0 0 1030.0 1030.0 0.0
25/08:41pm 7.1 6.3 6.7 97 0.2 CALM 0 0 0 0 1030.1 1030.1 0.0
25/08:40pm 7.4 6.7 7.0 97 0.2 CALM 0 0 0 0 1030.1 1030.1 0.0
25/08:39pm 7.5 6.8 7.1 97 0.2 CALM 0 0 0 0 1030.1 1030.1 0.0
25/08:38pm 7.4 6.7 6.8 96 0.3 CALM 0 0 0 0 1030.2 1030.2 0.0
25/08:31pm 7.4 6.7 6.8 96 0.3 CALM 0 0 0 0 1030.0 1030.0 0.0
25/08:30pm 7.4 6.7 6.8 96 0.3 CALM 0 0 0 0 1030.0 1030.0 0.0
25/08:00pm 8.9 8.6 8.5 97 0.2 CALM 0 0 0 0 1029.8 1029.8 0.0
25/07:46pm 8.3 7.8 7.7 96 0.3 CALM 0 0 0 0 1029.8 1029.8 0.0
25/07:36pm 8.3 7.7 7.4 94 0.4 CALM 0 0 0 0 1029.9 1029.9 0.0
25/07:30pm 8.4 7.8 7.5 94 0.4 CALM 0 0 0 0 1029.7 1029.7 0.0
25/07:00pm 9.3 8.0 7.7 90 0.8 S 4 7 2 4 1029.3 1029.3 0.0
25/06:30pm 10.8 10.6 9.1 89 0.8 CALM 0 0 0 0 1028.9 1028.9 0.0
25/06:00pm 11.2 10.9 8.8 85 1.2 CALM 0 0 0 0 1028.5 1028.5 0.0
25/05:30pm 11.9 11.6 8.7 81 1.6 CALM 0 0 0 0 1028.5 1028.5 0.0
25/05:00pm 13.7 12.2 8.5 71 2.6 NNE 6 7 3 4 1028.5 1028.5 0.0
25/04:30pm 14.3 12.9 8.7 69 2.8 NNE 6 7 3 4 1028.4 1028.4 0.0
25/04:00pm 15.7 13.6 8.4 62 3.7 NNE 9 11 5 6 1028.5 1028.5 0.0
25/03:30pm 17.0 16.0 7.4 53 4.8 N 2 6 1 3 1028.6 1028.6 0.0
25/03:00pm 17.1 15.2 7.5 53 4.8 N 7 9 4 5 1028.4 1028.4 0.0
25/02:30pm 17.1 15.1 7.2 52 5.0 N 7 9 4 5 1028.4 1028.4 0.0
25/02:00pm 17.0 15.6 7.1 52 4.9 N 4 7 2 4 1028.6 1028.6 0.0
25/01:30pm 16.4 14.3 6.8 53 4.7 N 7 11 4 6 1028.9 1028.9 0.0
25/01:00pm 16.5 14.6 6.6 52 4.8 NNW 6 11 3 6 1029.3 1029.3 0.0
25/12:30pm 16.7 14.9 8.1 57 4.4 N 7 13 4 7 1029.5 1029.4 0.0
25/12:00pm 16.1 14.3 7.3 56 4.4 N 6 11 3 6 1030.1 1030.1 0.0
25/11:30am 14.9 13.9 7.5 61 3.7 N 2 6 1 3 1030.5 1030.5 0.0
25/11:00am 14.7 13.9 8.2 65 3.2 N 2 7 1 4 1031.0 1031.0 0.0
25/10:30am 13.0 12.6 8.1 72 2.4 CALM 0 0 0 0 1031.8 1031.8 0.0
25/10:00am 11.9 11.5 8.4 79 1.7 CALM 0 0 0 0 1032.1 1032.1 0.0
25/09:30am 10.2 9.8 8.3 88 0.9 CALM 0 0 0 0 1032.4 1032.4 0.0
25/09:00am 8.6 8.1 8.0 96 0.3 CALM 0 0 0 0 1032.4 1032.4 0.2
25/08:30am 7.5 6.9 7.4 99 0.0 CALM 0 0 0 0 1032.0 1032.0 0.2
25/08:00am 5.9 4.9 5.8 99 0.0 CALM 0 0 0 0 1032.0 1032.0 0.2
25/07:30am 5.1 4.0 5.0 99 0.0 CALM 0 0 0 0 1032.1 1032.1 0.0
25/07:00am 4.5 3.3 4.4 99 0.0 CALM 0 0 0 0 1032.1 1032.1 0.0
25/06:30am 4.4 3.1 4.3 99 0.0 CALM 0 0 0 0 1031.9 1031.9 0.0
25/06:00am 4.8 3.6 4.7 99 0.0 CALM 0 0 0 0 1031.8 1031.8 0.0
25/05:40am 4.6 3.4 4.5 99 0.0 CALM 0 0 0 0 1031.8 1031.8 0.0
25/05:30am 4.7 3.5 4.6 99 0.0 CALM 0 0 0 0 1031.6 1031.6 0.0
25/05:15am 4.4 3.1 4.3 99 0.0 CALM 0 0 0 0 1031.6 1031.6 0.0
25/05:00am 4.1 2.8 4.0 99 0.0 CALM 0 0 0 0 1031.6 1031.6 0.0
25/04:46am 4.0 2.7 3.9 99 0.0 CALM 0 0 0 0 1031.3 1031.3 0.0
25/04:30am 3.7 2.3 3.6 99 0.0 CALM 0 0 0 0 1031.3 1031.3 0.0
25/04:00am 4.4 3.1 4.3 99 0.0 CALM 0 0 0 0 1031.6 1031.6 0.0
25/03:53am 4.3 3.0 4.2 99 0.0 CALM 0 0 0 0 1031.7 1031.7 0.0
25/03:43am 4.3 3.0 4.2 99 0.0 CALM 0 0 0 0 1031.7 1031.7 0.0
25/03:30am 4.3 3.0 4.2 99 0.0 CALM 0 0 0 0 1031.8 1031.8 0.0
25/03:08am 4.1 2.8 4.0 99 0.0 CALM 0 0 0 0 1031.8 1031.8 0.0
25/03:02am 4.2 2.9 4.1 99 0.0 CALM 0 0 0 0 1031.8 1031.8 0.0
25/03:00am 4.2 2.9 4.1 99 0.0 CALM 0 0 0 0 1031.8 1031.8 0.0
25/02:30am 4.4 3.1 4.3 99 0.0 CALM 0 0 0 0 1032.1 1032.1 0.0
25/02:20am 4.8 3.6 4.7 99 0.0 CALM 0 0 0 0 1032.2 1032.2 0.0
25/02:00am 4.8 3.6 4.7 99 0.0 CALM 0 0 0 0 1032.1 1032.1 0.0
25/01:53am 4.8 3.6 4.5 98 0.1 CALM 0 0 0 0 1032.2 1032.2 0.0
25/01:30am 4.8 3.6 4.5 98 0.1 CALM 0 0 0 0 1032.2 1032.2 0.0
25/01:21am 4.7 3.4 4.3 97 0.2 CALM 0 0 0 0 1032.2 1032.2 0.0
25/01:00am 5.2 4.0 4.8 97 0.2 CALM 0 0 0 0 1032.3 1032.3 0.0
25/12:30am 5.1 3.9 4.7 97 0.2 CALM 0 0 0 0 1032.4 1032.4 0.0
25/12:02am 5.4 4.3 5.0 97 0.2 CALM 0 0 0 0 1032.6 1032.6 0.0
25/12:00am 5.3 4.2 4.9 97 0.2 CALM 0 0 0 0 1032.6 1032.6 0.0
 
Date/Time
EST
Temp
°C
App
Temp
°C
Dew
Point
Rel
Hum
%
Delta-T
°C
Wind Press
QNH
hPa
Press
MSL
hPa
Rain
since 9 am
mm
Dir
 
Spd
km/h
Gust
km/h
Spd
kts
Gust
kts
24/11:52pm 5.4 4.3 5.0 97 0.2 CALM 0 0 0 0 1032.6 1032.6 0.0
24/11:30pm 5.2 4.0 4.8 97 0.2 CALM 0 0 0 0 1032.7 1032.7 0.0
24/11:05pm 6.0 5.0 5.6 97 0.2 CALM 0 0 0 0 1032.8 1032.8 0.0
24/11:00pm 6.0 5.0 5.6 97 0.2 CALM 0 0 0 0 1032.8 1032.8 0.0
24/10:45pm 5.8 4.8 5.4 97 0.2 CALM 0 0 0 0 1032.8 1032.8 0.0
24/10:30pm 6.0 5.0 5.6 97 0.2 CALM 0 0 0 0 1032.8 1032.8 0.0
24/10:00pm 6.2 5.2 5.5 95 0.3 CALM 0 0 0 0 1032.9 1032.9 0.0
24/09:45pm 6.3 5.3 5.7 96 0.3 CALM 0 0 0 0 1032.9 1032.9 0.0
24/09:33pm 6.7 5.8 6.1 96 0.3 CALM 0 0 0 0 1032.8 1032.8 0.0
24/09:30pm 6.6 5.7 6.0 96 0.3 CALM 0 0 0 0 1032.7 1032.7 0.0
24/09:19pm 6.9 6.0 6.2 95 0.3 CALM 0 0 0 0 1032.5 1032.5 0.0
24/09:13pm 6.7 5.7 5.8 94 0.4 CALM 0 0 0 0 1032.5 1032.5 0.0
24/09:00pm 6.7 5.7 5.7 93 0.4 CALM 0 0 0 0 1032.6 1032.6 0.0
24/08:59pm 6.8 5.8 5.7 93 0.5 CALM 0 0 0 0 1032.6 1032.6 0.0
24/08:30pm 7.8 7.1 6.9 94 0.4 CALM 0 0 0 0 1032.5 1032.5 0.0
24/08:00pm 7.6 6.8 6.4 92 0.5 CALM 0 0 0 0 1032.4 1032.4 0.0
24/07:30pm 8.1 7.2 6.2 88 0.9 CALM 0 0 0 0 1032.2 1032.2 0.0
24/07:00pm 8.9 8.1 6.7 86 1.0 CALM 0 2 0 1 1031.9 1031.9 0.0
24/06:30pm 9.8 9.0 6.7 81 1.5 CALM 0 0 0 0 1031.7 1031.7 0.0
24/06:00pm 10.2 8.1 6.0 75 1.9 SE 6 13 3 7 1031.6 1031.6 0.0
24/05:30pm 12.5 12.1 8.2 75 2.1 CALM 0 0 0 0 1031.4 1031.4 0.0
24/05:00pm 14.5 12.3 5.3 54 4.3 NE 6 7 3 4 1030.9 1030.9 0.0
24/04:30pm 16.6 15.5 4.9 46 5.6 CALM 0 0 0 0 1030.8 1030.8 0.0
24/04:00pm 18.0 16.7 3.9 39 6.6 CALM 0 0 0 0 1030.7 1030.7 0.0
24/03:30pm 19.0 17.8 4.7 39 6.9 CALM 0 6 0 3 1030.5 1030.5 0.0
24/03:00pm 18.2 16.5 4.0 39 6.7 NNW 2 9 1 5 1030.6 1030.6 0.0
24/02:30pm 18.1 15.5 4.3 40 6.6 NNE 7 11 4 6 1030.8 1030.8 0.0
24/02:00pm 18.1 16.7 5.3 43 6.2 WSW 2 11 1 6 1030.7 1030.7 0.0
24/01:30pm 18.1 15.6 4.7 41 6.4 NNW 7 11 4 6 1030.6 1030.6 0.0
24/01:00pm 18.5 17.7 6.7 46 5.9 CALM 0 6 0 3 1030.8 1030.8 0.0
24/12:30pm 17.0 15.9 5.3 46 5.6 CALM 0 0 0 0 1031.1 1031.1 0.0
24/12:00pm 16.8 15.7 6.9 52 4.9 WSW 2 6 1 3 1031.4 1031.4 0.0
24/11:30am 16.5 14.8 8.2 58 4.2 NW 7 13 4 7 1032.0 1032.0 0.0
24/11:00am 14.7 13.1 8.2 65 3.2 SSW 6 9 3 5 1032.5 1032.5 0.0
24/10:30am 13.0 11.1 7.5 69 2.7 SSE 7 9 4 5 1032.7 1032.7 0.0
24/10:00am 11.6 9.3 7.3 75 2.1 SSE 9 11 5 6 1032.8 1032.8 0.0
24/09:30am 10.7 9.0 8.3 85 1.2 SE 7 9 4 5 1032.8 1032.8 0.0
24/09:00am 8.4 6.5 6.7 89 0.8 S 6 9 3 5 1032.8 1032.8 0.0
24/08:30am 7.3 5.9 7.2 99 0.0 SSE 4 7 2 4 1032.6 1032.6 0.0
24/08:02am 5.7 4.7 5.6 99 0.0 CALM 0 0 0 0 1032.4 1032.4 0.0
24/08:00am 5.6 4.6 5.5 99 0.0 CALM 0 0 0 0 1032.4 1032.4 0.0
24/07:55am 5.3 4.2 5.2 99 0.0 CALM 0 0 0 0 1032.4 1032.4 0.0
24/07:30am 3.0 1.5 2.9 99 0.0 CALM 0 0 0 0 1032.3 1032.3 0.0
24/07:26am 2.9 1.4 2.8 99 0.0 CALM 0 0 0 0 1032.2 1032.2 0.0
24/07:21am 3.2 1.7 3.1 99 0.0 CALM 0 0 0 0 1032.2 1032.2 0.0
24/07:11am 2.6 1.0 2.5 99 0.0 CALM 0 0 0 0 1032.0 1032.0 0.0
24/07:00am 2.9 1.4 2.8 99 0.0 CALM 0 0 0 0 1031.9 1031.9 0.0
24/06:48am 2.8 1.2 2.7 99 0.0 CALM 0 0 0 0 1031.8 1031.8 0.0
24/06:35am 2.8 1.2 2.7 99 0.0 CALM 0 0 0 0 1031.7 1031.7 0.0
24/06:30am 2.6 1.0 2.5 99 0.0 CALM 0 0 0 0 1031.7 1031.7 0.0
24/06:27am 2.6 1.0 2.5 99 0.0 CALM 0 0 0 0 1031.7 1031.7 0.0
24/06:22am 2.5 0.9 2.4 99 0.0 CALM 0 0 0 0 1031.7 1031.7 0.0
24/06:00am 2.3 0.7 2.2 99 0.0 CALM 0 0 0 0 1031.5 1031.5 0.0
24/05:30am 3.4 2.0 3.3 99 0.0 CALM 0 0 0 0 1031.3 1031.3 0.0
24/05:27am 3.4 2.0 3.3 99 0.0 CALM 0 0 0 0 1031.2 1031.2 0.0
24/05:09am 3.0 1.5 2.9 99 0.0 CALM 0 0 0 0 1031.1 1031.1 0.0
24/05:00am 3.1 1.6 3.0 99 0.0 CALM 0 0 0 0 1031.1 1031.1 0.0
24/04:49am 3.5 2.1 3.4 99 0.0 CALM 0 0 0 0 1031.1 1031.1 0.0
24/04:45am 3.6 2.2 3.5 99 0.0 CALM 0 0 0 0 1031.0 1031.0 0.0
24/04:36am 3.7 2.3 3.6 99 0.0 CALM 0 0 0 0 1030.9 1030.9 0.0
24/04:30am 3.6 2.2 3.5 99 0.0 CALM 0 0 0 0 1030.9 1030.9 0.0
24/04:27am 3.6 2.2 3.5 99 0.0 CALM 0 0 0 0 1030.9 1030.9 0.0
24/04:20am 3.4 2.0 3.3 99 0.0 CALM 0 0 0 0 1030.8 1030.8 0.0
24/04:16am 3.6 2.2 3.5 99 0.0 CALM 0 0 0 0 1030.8 1030.8 0.0
24/04:00am 3.4 2.0 3.3 99 0.0 CALM 0 0 0 0 1030.6 1030.6 0.0
24/03:56am 3.7 2.3 3.6 99 0.0 CALM 0 0 0 0 1030.6 1030.6 0.0
24/03:54am 3.6 2.2 3.3 98 0.1 CALM 0 0 0 0 1030.6 1030.6 0.0
24/03:37am 3.7 2.3 3.4 98 0.1 CALM 0 0 0 0 1030.5 1030.5 0.0
24/03:30am 3.5 2.1 3.4 99 0.0 CALM 0 0 0 0 1030.4 1030.4 0.0
24/03:00am 3.8 2.4 3.5 98 0.1 CALM 0 0 0 0 1030.4 1030.4 0.0
24/02:51am 3.8 2.4 3.5 98 0.1 CALM 0 0 0 0 1030.4 1030.4 0.0
24/02:45am 3.8 2.4 3.5 98 0.1 CALM 0 0 0 0 1030.3 1030.3 0.0
24/02:38am 3.9 2.5 3.6 98 0.1 CALM 0 0 0 0 1030.3 1030.3 0.0
24/02:30am 4.2 2.9 3.9 98 0.1 CALM 0 0 0 0 1030.3 1030.3 0.0
24/02:08am 4.4 3.1 4.1 98 0.1 CALM 0 0 0 0 1030.4 1030.4 0.0
24/02:03am 4.4 3.1 4.1 98 0.1 CALM 0 0 0 0 1030.4 1030.4 0.0
24/02:00am 4.4 3.1 4.1 98 0.1 CALM 0 0 0 0 1030.4 1030.4 0.0
24/01:45am 4.2 2.9 3.9 98 0.1 CALM 0 0 0 0 1030.4 1030.4 0.0
24/01:30am 4.6 3.3 4.3 98 0.1 CALM 0 0 0 0 1030.4 1030.4 0.0
24/01:26am 4.6 3.3 4.3 98 0.1 CALM 0 0 0 0 1030.4 1030.4 0.0
24/01:13am 5.7 4.7 5.6 99 0.0 CALM 0 0 0 0 1030.2 1030.2 0.0
24/01:00am 5.0 3.8 4.7 98 0.1 CALM 0 0 0 0 1030.2 1030.2 0.0
24/12:54am 5.1 3.9 4.7 97 0.2 CALM 0 0 0 0 1030.2 1030.2 0.0
24/12:32am 5.0 3.8 4.6 97 0.2 CALM 0 0 0 0 1030.2 1030.2 0.0
24/12:30am 5.0 3.8 4.6 97 0.2 CALM 0 0 0 0 1030.2 1030.2 0.0
24/12:00am 5.4 4.3 5.0 97 0.2 CALM 0 0 0 0 1030.2 1030.2 0.0
 
Date/Time
EST
Temp
°C
App
Temp
°C
Dew
Point
Rel
Hum
%
Delta-T
°C
Wind Press
QNH
hPa
Press
MSL
hPa
Rain
since 9 am
mm
Dir
 
Spd
km/h
Gust
km/h
Spd
kts
Gust
kts
23/11:52pm 5.9 4.9 5.5 97 0.2 CALM 0 0 0 0 1030.1 1030.1 0.0
23/11:38pm 6.0 5.0 5.6 97 0.2 CALM 0 0 0 0 1030.2 1030.2 0.0
23/11:37pm 5.9 4.9 5.5 97 0.2 CALM 0 0 0 0 1030.2 1030.2 0.0
23/11:30pm 6.0 5.0 5.6 97 0.2 CALM 0 0 0 0 1030.2 1030.2 0.0
23/11:27pm 6.0 5.0 5.6 97 0.2 CALM 0 0 0 0 1030.2 1030.2 0.0
23/11:00pm 6.7 5.1 6.4 98 0.1 N 4 6 2 3 1030.2 1030.2 0.0
23/10:30pm 6.5 4.3 6.2 98 0.1 N 7 7 4 4 1030.4 1030.4 0.0
23/10:27pm 6.5 4.3 6.2 98 0.1 N 7 7 4 4 1030.4 1030.4 0.0
23/10:00pm 6.9 5.0 6.5 97 0.2 NNW 6 7 3 4 1030.3 1030.3 0.0
23/09:45pm 7.1 5.9 6.5 96 0.3 NNW 2 7 1 4 1030.4 1030.4 0.0
23/09:30pm 7.2 6.4 6.5 95 0.3 CALM 0 0 0 0 1030.4 1030.4 0.0
23/09:00pm 7.7 6.9 6.6 93 0.5 CALM 0 0 0 0 1030.3 1030.3 0.0
23/08:30pm 8.1 7.4 6.9 92 0.6 CALM 0 0 0 0 1030.3 1030.3 0.0

Other Formats:

Comma delimited format used in spreadsheet applications
http://www.bom.gov.au/fwo/IDN60801/IDN60801.94755.axf

JavaScript Object Notation format (JSON) in row-major order
http://www.bom.gov.au/fwo/IDN60801/IDN60801.94755.json